Time;durP1;ratioP1;P1;durP2;ratioP2;P2;SDS_P1;SDS_P2;PMS_P1;PMS_P2;Temp;Humidity;BMP_temperature;BMP_pressure;BME280_temperature;BME280_humidity;BME280_pressure;Samples;Min_cycle;Max_cycle;Signal;HPM_P1;HPM_P2
2023/07/13 00:00:33;;;;;;;8.10;2.50;;;;;;;20.38;78.16;99859.20;110035;1268;22145;-61
2023/07/13 00:03:24;;;;;;;10.60;2.40;;;;;;;20.33;78.32;99865.63;110033;1265;22927;-59
2023/07/13 00:06:02;;;;;;;7.60;1.90;;;;;;;20.29;78.54;99865.07;110043;1270;22277;-61
2023/07/13 00:08:34;;;;;;;7.30;2.00;;;;;;;20.24;78.63;99863.73;110027;1275;22174;-61
2023/07/13 00:11:06;;;;;;;8.50;2.10;;;;;;;20.17;78.71;99852.36;110019;1268;22513;-60
2023/07/13 00:13:39;;;;;;;9.90;2.00;;;;;;;20.09;78.84;99851.02;110035;1265;22144;-61
2023/07/13 00:16:11;;;;;;;10.50;2.40;;;;;;;20.03;78.75;99856.63;110041;1272;22192;-60
2023/07/13 00:18:42;;;;;;;9.90;1.80;;;;;;;19.96;78.68;99857.11;110030;1280;22193;-59
2023/07/13 00:21:14;;;;;;;8.20;2.20;;;;;;;19.93;78.79;99855.70;110052;1268;22144;-61
2023/07/13 00:23:45;;;;;;;7.60;2.40;;;;;;;19.91;78.79;99851.63;110043;1275;22204;-61
2023/07/13 00:26:17;;;;;;;6.40;1.60;;;;;;;19.91;78.95;99851.02;110031;1273;22161;-61
2023/07/13 00:28:48;;;;;;;7.80;2.20;;;;;;;19.88;79.23;99859.79;110039;1266;22319;-61
2023/07/13 00:31:18;;;;;;;12.50;2.60;;;;;;;19.85;79.29;99860.77;110079;1264;22523;-61
2023/07/13 00:33:50;;;;;;;7.80;2.00;;;;;;;19.84;79.27;99864.42;110058;1279;22128;-60
2023/07/13 00:36:22;;;;;;;10.60;2.40;;;;;;;19.85;79.48;99859.98;110020;1272;23674;-62
2023/07/13 00:38:53;;;;;;;11.40;3.00;;;;;;;19.85;79.75;99859.41;110032;1268;22160;-59
2023/07/13 00:41:24;;;;;;;11.60;2.70;;;;;;;19.85;79.78;99864.81;110067;1272;22263;-61
2023/07/13 00:43:55;;;;;;;12.50;3.20;;;;;;;19.84;80.07;99868.40;110047;1268;22273;-62
2023/07/13 00:46:29;;;;;;;9.50;2.40;;;;;;;19.82;80.38;99876.42;110022;1265;22210;-59
2023/07/13 00:49:03;;;;;;;10.60;2.50;;;;;;;19.79;80.45;99880.50;110070;1276;23502;-62
2023/07/13 00:51:40;;;;;;;11.70;2.60;;;;;;;19.76;80.48;99878.78;110067;1272;22441;-61
2023/07/13 00:54:13;;;;;;;8.90;2.20;;;;;;;19.74;80.64;99878.84;109978;1269;22389;-61
2023/07/13 00:56:47;;;;;;;10.60;2.90;;;;;;;19.75;80.91;99880.66;110060;1272;22213;-59
2023/07/13 00:59:20;;;;;;;9.80;3.10;;;;;;;19.74;81.13;99871.20;110058;1269;22355;-60
2023/07/13 01:01:52;;;;;;;10.70;2.50;;;;;;;19.75;81.24;99873.27;110053;1268;22205;-61
2023/07/13 01:04:24;;;;;;;12.40;3.40;;;;;;;19.75;81.43;99874.95;110047;1272;22321;-61
2023/07/13 01:06:56;;;;;;;11.70;2.90;;;;;;;19.74;81.55;99887.94;110084;1279;22205;-59
2023/07/13 01:09:29;;;;;;;10.30;2.80;;;;;;;19.73;81.78;99897.90;110051;1269;22227;-60
2023/07/13 01:12:00;;;;;;;12.00;2.90;;;;;;;19.73;82.05;99914.09;110076;1264;22173;-60
2023/07/13 01:14:31;;;;;;;12.80;3.00;;;;;;;19.71;82.61;99933.70;110055;1272;22182;-59
2023/07/13 01:17:02;;;;;;;12.70;2.60;;;;;;;19.65;82.84;99941.23;110055;1269;22445;-60
2023/07/13 01:19:38;;;;;;;15.90;3.30;;;;;;;19.62;82.91;99927.30;110029;1272;22919;-62
2023/07/13 01:22:11;;;;;;;13.00;3.00;;;;;;;19.64;82.99;99899.35;109959;1266;22173;-61
2023/07/13 01:24:44;;;;;;;12.90;3.40;;;;;;;19.69;82.98;99867.88;110055;1272;22322;-58
2023/07/13 01:27:17;;;;;;;15.10;3.60;;;;;;;19.72;83.73;99859.75;110059;1272;22160;-58
2023/07/13 01:29:48;;;;;;;12.30;3.30;;;;;;;19.71;83.62;99866.50;110057;1276;22375;-57
2023/07/13 01:32:23;;;;;;;12.70;3.80;;;;;;;19.72;84.22;99875.23;110092;1269;23441;-58
2023/07/13 01:34:55;;;;;;;10.80;2.80;;;;;;;19.69;84.44;99875.73;110077;1272;22255;-60
2023/07/13 01:37:26;;;;;;;15.70;3.30;;;;;;;19.66;84.42;99879.34;110037;1272;23459;-58
2023/07/13 01:39:57;;;;;;;11.90;2.70;;;;;;;19.62;84.49;99874.21;110082;1272;22200;-57
2023/07/13 01:42:28;;;;;;;12.30;3.50;;;;;;;19.60;84.47;99872.48;110044;1272;22237;-59
2023/07/13 01:45:15;;;;;;;15.30;3.00;;;;;;;19.59;84.28;99865.70;110080;1272;23282;-60
2023/07/13 01:47:46;;;;;;;13.30;3.00;;;;;;;19.57;84.60;99856.02;110087;1272;22253;-59
2023/07/13 01:50:17;;;;;;;14.10;3.00;;;;;;;19.54;84.85;99846.98;110044;1273;22276;-58
2023/07/13 01:52:48;;;;;;;15.00;3.80;;;;;;;19.52;85.51;99844.92;110072;1272;22216;-58
2023/07/13 01:55:20;;;;;;;15.70;3.30;;;;;;;19.44;85.47;99838.20;110064;1263;22237;-59
2023/07/13 01:57:51;;;;;;;10.40;3.10;;;;;;;19.40;85.28;99833.83;110065;1279;22173;-61
2023/07/13 02:00:22;;;;;;;13.20;3.60;;;;;;;19.36;85.46;99835.98;110056;1272;22183;-59
2023/07/13 02:02:53;;;;;;;11.50;3.30;;;;;;;19.35;85.30;99827.80;110071;1272;22333;-61
2023/07/13 02:05:24;;;;;;;9.80;3.10;;;;;;;19.36;85.23;99825.59;110080;1265;22151;-60
2023/07/13 02:07:55;;;;;;;12.90;3.90;;;;;;;19.37;85.31;99833.67;110021;1265;22228;-59
2023/07/13 02:10:26;;;;;;;11.50;3.50;;;;;;;19.35;85.41;99828.38;110083;1263;22170;-61
2023/07/13 02:12:56;;;;;;;14.20;3.30;;;;;;;19.29;85.08;99827.97;110076;1272;22949;-58
2023/07/13 02:15:27;;;;;;;11.20;2.80;;;;;;;19.25;84.84;99826.52;110047;1266;22226;-56
2023/07/13 02:17:58;;;;;;;11.10;2.90;;;;;;;19.14;84.74;99819.57;110056;1270;22246;-58
2023/07/13 02:20:29;;;;;;;15.10;4.20;;;;;;;19.08;85.20;99806.83;110058;1269;22205;-57
2023/07/13 02:23:00;;;;;;;12.60;3.00;;;;;;;19.08;85.32;99808.08;110081;1272;23075;-57
2023/07/13 02:25:32;;;;;;;11.60;3.50;;;;;;;19.08;85.59;99806.23;110095;1263;22284;-60
2023/07/13 02:28:03;;;;;;;15.90;3.40;;;;;;;19.05;85.55;99802.69;110062;1279;22404;-57
2023/07/13 02:30:35;;;;;;;10.90;3.40;;;;;;;19.01;85.74;99811.99;110073;1279;22343;-60
2023/07/13 02:33:06;;;;;;;12.20;3.60;;;;;;;18.97;85.93;99815.88;110061;1272;22132;-58
2023/07/13 02:35:36;;;;;;;12.50;3.20;;;;;;;18.93;85.89;99822.20;110093;1269;23127;-60
2023/07/13 02:38:08;;;;;;;14.70;3.60;;;;;;;18.91;86.00;99823.34;110063;1268;22129;-57
2023/07/13 02:40:39;;;;;;;14.30;4.40;;;;;;;18.92;86.20;99821.91;110052;1272;22262;-59
2023/07/13 02:43:10;;;;;;;15.60;4.10;;;;;;;18.92;86.21;99815.17;110061;1273;22160;-60
2023/07/13 02:45:44;;;;;;;14.10;4.10;;;;;;;18.94;86.34;99811.38;110106;1279;23246;-60
2023/07/13 02:48:16;;;;;;;21.50;4.00;;;;;;;18.95;86.41;99808.95;109940;1275;22414;-59
2023/07/13 02:50:48;;;;;;;11.40;3.70;;;;;;;18.94;86.39;99808.85;110072;1269;22199;-59
2023/07/13 02:53:18;;;;;;;10.80;3.80;;;;;;;18.95;86.57;99807.59;110046;1266;22209;-60
2023/07/13 02:55:49;;;;;;;13.40;3.80;;;;;;;18.92;87.07;99811.66;110048;1273;22203;-57
2023/07/13 02:58:20;;;;;;;12.70;3.90;;;;;;;18.88;87.29;99815.61;110051;1271;22193;-59
2023/07/13 03:00:51;;;;;;;15.60;4.20;;;;;;;18.83;86.93;99822.98;110054;1279;22225;-60
2023/07/13 03:03:24;;;;;;;9.50;3.20;;;;;;;18.81;86.86;99827.70;110071;1272;22367;-56
2023/07/13 03:06:03;;;;;;;17.40;3.70;;;;;;;18.79;86.94;99829.70;110063;1269;22900;-61
2023/07/13 03:08:34;;;;;;;12.50;3.70;;;;;;;18.75;86.89;99833.13;110058;1272;22284;-59
2023/07/13 03:11:08;;;;;;;9.40;3.30;;;;;;;18.73;87.02;99831.77;110109;1272;22482;-59
2023/07/13 03:13:39;;;;;;;13.80;3.80;;;;;;;18.72;87.24;99830.70;110089;1265;22328;-60
2023/07/13 03:16:11;;;;;;;15.10;4.10;;;;;;;18.70;87.21;99827.16;110106;1263;23677;-59
2023/07/13 03:18:41;;;;;;;18.10;4.00;;;;;;;18.68;87.43;99833.10;110089;1272;22352;-59
2023/07/13 03:21:13;;;;;;;10.60;3.70;;;;;;;18.65;87.48;99833.28;110063;1269;22992;-58
2023/07/13 03:23:44;;;;;;;15.00;3.90;;;;;;;18.61;87.62;99835.27;110083;1272;22138;-60
2023/07/13 03:26:17;;;;;;;13.50;4.00;;;;;;;18.58;88.12;99833.75;110115;1272;22116;-59
2023/07/13 03:28:48;;;;;;;14.60;4.30;;;;;;;18.56;88.34;99832.00;110056;1272;22416;-59
2023/07/13 03:31:21;;;;;;;15.10;4.30;;;;;;;18.57;88.27;99832.39;110039;1265;22256;-60
2023/07/13 03:33:52;;;;;;;12.40;3.90;;;;;;;18.63;88.27;99828.48;110105;1279;22321;-58
2023/07/13 03:36:25;;;;;;;14.40;4.10;;;;;;;18.68;88.55;99833.17;110071;1269;23104;-60
2023/07/13 03:38:58;;;;;;;16.90;4.30;;;;;;;18.70;89.13;99842.02;110074;1264;22183;-63
2023/07/13 03:41:29;;;;;;;14.00;5.10;;;;;;;18.69;88.92;99843.42;110085;1269;22144;-62
2023/07/13 03:43:59;;;;;;;12.90;4.20;;;;;;;18.72;89.29;99844.65;110119;1267;22184;-60
2023/07/13 03:46:31;;;;;;;15.60;4.20;;;;;;;18.74;89.16;99847.23;110049;1273;22169;-59
2023/07/13 03:49:02;;;;;;;17.60;4.90;;;;;;;18.78;89.30;99845.82;110104;1262;22416;-60
2023/07/13 03:51:34;;;;;;;13.60;4.80;;;;;;;18.81;89.64;99836.90;110077;1269;22248;-59
2023/07/13 03:54:05;;;;;;;14.30;4.40;;;;;;;18.84;89.52;99833.81;110072;1272;22110;-60
2023/07/13 03:56:36;;;;;;;17.10;5.20;;;;;;;18.88;89.32;99835.40;110086;1269;22267;-60
2023/07/13 03:59:06;;;;;;;13.10;4.80;;;;;;;18.93;89.24;99837.16;110054;1272;22493;-62
2023/07/13 04:01:39;;;;;;;11.80;3.90;;;;;;;18.97;89.48;99838.05;110064;1269;22222;-58
2023/07/13 04:04:10;;;;;;;16.80;4.90;;;;;;;19.01;89.68;99839.00;110085;1265;22128;-60
2023/07/13 04:06:41;;;;;;;13.70;4.60;;;;;;;19.04;89.75;99841.98;110085;1274;23448;-63
2023/07/13 04:09:11;;;;;;;10.90;4.20;;;;;;;19.07;89.67;99839.52;110090;1268;22377;-61
2023/07/13 04:11:43;;;;;;;14.70;4.70;;;;;;;19.12;90.12;99844.26;110075;1272;22229;-59
2023/07/13 04:14:13;;;;;;;14.20;5.40;;;;;;;19.16;90.47;99851.64;110059;1273;23535;-61
2023/07/13 04:16:45;;;;;;;12.40;5.20;;;;;;;19.16;90.40;99862.73;110099;1267;22184;-59
2023/07/13 04:19:16;;;;;;;11.70;4.70;;;;;;;19.17;90.48;99863.95;110072;1273;22390;-60
2023/07/13 04:21:47;;;;;;;12.50;4.60;;;;;;;19.18;90.57;99869.27;110104;1277;22139;-60
2023/07/13 04:24:18;;;;;;;14.30;4.50;;;;;;;19.19;90.59;99873.85;110068;1272;22256;-61
2023/07/13 04:26:49;;;;;;;11.10;4.30;;;;;;;19.19;90.90;99876.51;110107;1272;22157;-59
2023/07/13 04:29:20;;;;;;;12.80;5.00;;;;;;;19.20;90.91;99886.36;110066;1273;23243;-58
2023/07/13 04:31:51;;;;;;;17.20;4.50;;;;;;;19.21;91.00;99897.20;110072;1272;22157;-60
2023/07/13 04:34:22;;;;;;;15.70;5.60;;;;;;;19.19;91.41;99910.56;110056;1263;22188;-63
2023/07/13 04:36:53;;;;;;;25.00;5.60;;;;;;;19.15;91.51;99930.36;110102;1272;22360;-58
2023/07/13 04:39:24;;;;;;;16.10;4.90;;;;;;;19.11;91.65;99961.16;110065;1269;22168;-61
2023/07/13 04:41:55;;;;;;;14.20;4.60;;;;;;;19.06;91.99;100028.02;110079;1269;22269;-59
2023/07/13 04:44:26;;;;;;;11.10;3.50;;;;;;;19.00;92.03;100050.46;110077;1269;22894;-61
2023/07/13 04:46:57;;;;;;;10.80;1.90;;;;;;;18.95;90.08;100069.13;110083;1273;22337;-59
2023/07/13 04:49:28;;;;;;;10.10;1.80;;;;;;;18.88;87.88;100077.52;110096;1273;22250;-61
2023/07/13 04:51:59;;;;;;;9.60;2.00;;;;;;;18.79;86.90;100088.34;110128;1266;22176;-61
2023/07/13 04:54:30;;;;;;;11.60;2.20;;;;;;;18.66;87.16;100094.67;110056;1273;22331;-63
2023/07/13 04:57:01;;;;;;;8.30;1.40;;;;;;;18.46;87.58;100096.71;110116;1272;23084;-63
2023/07/13 04:59:31;;;;;;;7.60;1.30;;;;;;;18.22;87.87;100117.34;110101;1276;22946;-61
2023/07/13 05:02:03;;;;;;;5.70;1.20;;;;;;;17.94;87.79;100145.57;110096;1272;22324;-61
2023/07/13 05:04:34;;;;;;;6.70;1.30;;;;;;;17.69;88.32;100172.91;110079;1276;22207;-60
2023/07/13 05:07:06;;;;;;;6.30;1.20;;;;;;;17.51;88.69;100166.53;110091;1279;22294;-59
2023/07/13 05:09:37;;;;;;;4.10;0.80;;;;;;;17.35;89.13;100151.43;110067;1279;22145;-55
2023/07/13 05:12:10;;;;;;;5.60;1.00;;;;;;;17.16;89.32;100130.67;110046;1272;22197;-56
2023/07/13 05:14:41;;;;;;;3.30;0.90;;;;;;;16.96;89.70;100117.58;110063;1276;22284;-59
2023/07/13 05:17:12;;;;;;;7.70;1.30;;;;;;;16.78;90.28;100117.07;110104;1269;22305;-62
2023/07/13 05:19:42;;;;;;;6.20;1.00;;;;;;;16.61;90.44;100118.65;110080;1276;22677;-61
2023/07/13 05:22:14;;;;;;;5.40;1.20;;;;;;;16.45;90.97;100121.23;110070;1273;22363;-58
2023/07/13 05:24:45;;;;;;;5.50;1.00;;;;;;;16.33;91.57;100113.02;110095;1279;22363;-58
2023/07/13 05:27:16;;;;;;;7.20;1.50;;;;;;;16.22;92.12;100105.66;110095;1275;22153;-61
2023/07/13 05:29:47;;;;;;;8.00;1.10;;;;;;;16.14;92.57;100102.02;110085;1278;23091;-62
2023/07/13 05:32:18;;;;;;;6.40;1.50;;;;;;;16.09;92.78;100112.63;110082;1279;22390;-61
2023/07/13 05:34:49;;;;;;;8.70;1.30;;;;;;;16.07;93.06;100107.23;110085;1271;22424;-60
2023/07/13 05:37:20;;;;;;;7.90;1.30;;;;;;;16.07;93.16;100092.28;110059;1273;22221;-60
2023/07/13 05:39:51;;;;;;;5.90;1.10;;;;;;;16.08;93.18;100078.55;110121;1279;22153;-57
2023/07/13 05:42:22;;;;;;;7.50;1.40;;;;;;;16.08;93.15;100065.61;110070;1269;22149;-58
2023/07/13 05:44:57;;;;;;;8.30;1.20;;;;;;;16.08;93.28;100060.83;110054;1273;22427;-59
2023/07/13 05:47:28;;;;;;;6.90;1.40;;;;;;;16.11;93.35;100054.38;110090;1273;23000;-59
2023/07/13 05:49:59;;;;;;;5.10;1.50;;;;;;;16.17;93.72;100047.88;110070;1269;22143;-60
2023/07/13 05:52:30;;;;;;;4.70;1.20;;;;;;;16.21;93.49;100041.03;110061;1272;22392;-61
2023/07/13 05:55:02;;;;;;;7.20;1.30;;;;;;;16.29;93.63;100029.15;110047;1278;23131;-57
2023/07/13 05:57:34;;;;;;;5.80;1.10;;;;;;;16.37;93.57;100019.52;110074;1272;22143;-57
2023/07/13 06:00:06;;;;;;;5.50;1.40;;;;;;;16.42;93.25;100020.85;110058;1275;22334;-57
2023/07/13 06:02:38;;;;;;;5.90;1.30;;;;;;;16.48;93.39;100011.69;110044;1273;22161;-55
2023/07/13 06:05:10;;;;;;;4.60;1.00;;;;;;;16.53;93.25;99996.34;110023;1272;22852;-59
2023/07/13 06:07:42;;;;;;;7.40;1.10;;;;;;;16.54;93.14;99997.92;110047;1266;22397;-61
2023/07/13 06:10:13;;;;;;;6.10;1.30;;;;;;;16.55;93.11;99999.66;110060;1273;23089;-60
2023/07/13 06:12:44;;;;;;;4.00;1.10;;;;;;;16.52;93.08;99989.90;110067;1280;22195;-58
2023/07/13 06:15:15;;;;;;;7.10;1.20;;;;;;;16.52;93.46;99967.95;110061;1273;22252;-60
2023/07/13 06:17:46;;;;;;;7.80;1.20;;;;;;;16.56;93.69;99971.98;110064;1272;22909;-60
2023/07/13 06:20:17;;;;;;;5.70;1.80;;;;;;;16.59;93.74;99980.31;110056;1273;22319;-58
2023/07/13 06:22:58;;;;;;;5.70;1.20;;;;;;;16.61;93.84;99991.66;110055;1273;22187;-55
2023/07/13 06:25:30;;;;;;;6.00;1.10;;;;;;;16.63;93.95;100003.33;110077;1273;22250;-57
2023/07/13 06:28:00;;;;;;;5.10;1.30;;;;;;;16.64;94.27;100008.65;110068;1278;22520;-61
2023/07/13 06:30:32;;;;;;;4.70;1.30;;;;;;;16.68;94.64;100005.38;105932;1272;5426840;-60
2023/07/13 06:33:06;;;;;;;3.70;1.10;;;;;;;16.72;94.27;100002.83;110066;1272;22312;-62
2023/07/13 06:35:37;;;;;;;4.70;1.20;;;;;;;16.79;94.49;100008.50;110080;1273;22124;-60
2023/07/13 06:38:07;;;;;;;8.10;1.10;;;;;;;16.87;94.53;100021.65;110052;1276;22120;-60
2023/07/13 06:40:38;;;;;;;5.90;1.00;;;;;;;16.92;94.58;100033.12;110073;1273;22150;-59
2023/07/13 06:43:09;;;;;;;4.20;1.00;;;;;;;17.00;94.80;100040.42;110103;1272;22244;-62
2023/07/13 06:45:45;;;;;;;3.90;1.10;;;;;;;17.10;94.84;100038.23;110092;1279;23041;-59
2023/07/13 06:48:16;;;;;;;5.60;1.50;;;;;;;17.18;94.85;100045.37;110061;1279;22212;-60
2023/07/13 06:50:49;;;;;;;4.70;1.30;;;;;;;17.28;94.87;100052.95;110082;1269;22172;-59
2023/07/13 06:53:21;;;;;;;5.50;1.10;;;;;;;17.37;95.21;100060.30;110072;1269;22181;-61
2023/07/13 06:55:52;;;;;;;6.20;1.20;;;;;;;17.41;94.41;100067.13;110071;1276;22240;-62
2023/07/13 06:58:24;;;;;;;7.40;1.30;;;;;;;17.42;94.66;100078.60;110024;1259;23000;-61
2023/07/13 07:00:55;;;;;;;4.80;1.10;;;;;;;17.45;94.41;100086.93;110097;1279;22213;-61
2023/07/13 07:03:26;;;;;;;5.90;1.10;;;;;;;17.45;94.54;100094.02;110114;1275;22946;-62
2023/07/13 07:06:00;;;;;;;4.40;1.10;;;;;;;17.43;94.27;100109.42;110066;1268;22164;-61
2023/07/13 07:08:32;;;;;;;3.90;0.90;;;;;;;17.40;94.45;100140.61;110052;1269;22295;-58
2023/07/13 07:11:03;;;;;;;6.50;1.20;;;;;;;17.39;94.72;100157.14;110075;1267;22197;-61
2023/07/13 07:13:34;;;;;;;4.70;1.30;;;;;;;17.37;94.87;100172.85;110104;1266;22168;-61
2023/07/13 07:16:05;;;;;;;6.80;1.30;;;;;;;17.35;94.80;100181.29;110099;1276;22194;-62
2023/07/13 07:18:36;;;;;;;6.10;1.10;;;;;;;17.31;94.99;100190.45;110074;1273;22358;-61
2023/07/13 07:21:07;;;;;;;5.00;1.20;;;;;;;17.29;95.09;100196.63;110058;1268;22331;-61
2023/07/13 07:23:38;;;;;;;7.10;1.30;;;;;;;17.26;95.24;100197.16;110098;1274;23158;-61
2023/07/13 07:26:10;;;;;;;8.00;1.90;;;;;;;17.23;95.19;100204.02;110088;1272;22159;-60
2023/07/13 07:28:41;;;;;;;6.40;1.30;;;;;;;17.21;95.37;100198.86;110044;1272;23158;-60
2023/07/13 07:31:12;;;;;;;7.50;1.60;;;;;;;17.22;95.48;100196.59;110082;1266;22356;-62
2023/07/13 07:33:43;;;;;;;8.70;2.20;;;;;;;17.24;95.71;100194.11;110083;1279;22804;-63
2023/07/13 07:36:14;;;;;;;7.40;1.60;;;;;;;17.24;95.60;100188.92;110084;1269;22273;-68
2023/07/13 07:38:44;;;;;;;7.60;1.80;;;;;;;17.25;95.63;100171.23;110087;1276;22145;-62
2023/07/13 07:41:16;;;;;;;11.90;2.20;;;;;;;17.27;96.03;100151.61;110097;1272;22987;-71
2023/07/13 07:43:46;;;;;;;9.10;2.20;;;;;;;17.34;96.53;100131.12;110113;1273;22178;-69
2023/07/13 07:46:17;;;;;;;9.30;1.90;;;;;;;17.40;96.28;100109.46;110074;1266;22366;-69
2023/07/13 07:48:48;;;;;;;13.80;5.50;;;;;;;17.45;96.17;100081.60;110091;1275;22173;-69
2023/07/13 07:51:19;;;;;;;18.10;4.40;;;;;;;17.50;95.90;100054.36;110114;1268;22205;-67
2023/07/13 07:53:50;;;;;;;15.30;3.80;;;;;;;17.53;95.93;100022.46;110106;1276;22958;-71
2023/07/13 07:56:21;;;;;;;9.90;2.70;;;;;;;17.54;95.81;100009.05;110091;1275;23640;-71
2023/07/13 07:58:51;;;;;;;9.40;2.10;;;;;;;17.57;95.78;100013.39;110082;1269;22258;-61
2023/07/13 08:01:22;;;;;;;7.10;2.20;;;;;;;17.60;95.82;100020.11;110046;1273;23020;-61
2023/07/13 08:03:53;;;;;;;8.70;2.20;;;;;;;17.62;96.20;100037.43;110133;1276;22161;-61
2023/07/13 08:06:24;;;;;;;11.50;2.00;;;;;;;17.63;96.27;100034.45;110096;1272;22185;-61
2023/07/13 08:08:56;;;;;;;10.70;2.20;;;;;;;17.65;96.64;100026.66;110066;1272;22137;-60
2023/07/13 08:11:27;;;;;;;8.10;1.80;;;;;;;17.68;96.85;100023.09;110048;1269;22943;-59
2023/07/13 08:13:58;;;;;;;7.70;2.00;;;;;;;17.73;97.40;100020.87;110089;1266;22216;-57
2023/07/13 08:16:29;;;;;;;9.60;2.20;;;;;;;17.78;97.94;100036.45;110099;1272;23339;-54
2023/07/13 08:19:00;;;;;;;3.70;1.30;;;;;;;17.88;98.27;100049.57;110116;1279;22263;-56
2023/07/13 08:21:31;;;;;;;5.40;1.10;;;;;;;17.96;98.05;100064.04;110079;1269;22419;-54
2023/07/13 08:24:02;;;;;;;4.50;1.00;;;;;;;18.07;98.13;100069.68;110100;1269;22322;-56
2023/07/13 08:26:34;;;;;;;3.80;0.90;;;;;;;18.17;97.22;100085.48;110087;1275;22184;-57
2023/07/13 08:29:05;;;;;;;4.40;1.00;;;;;;;18.25;96.44;100086.95;110107;1269;22340;-57
2023/07/13 08:31:35;;;;;;;6.30;1.00;;;;;;;18.33;96.10;100096.44;110105;1273;23217;-57
2023/07/13 08:34:06;;;;;;;4.20;1.00;;;;;;;18.39;95.76;100107.85;110099;1273;22326;-57
2023/07/13 08:36:38;;;;;;;3.60;0.90;;;;;;;18.45;95.51;100115.96;110097;1279;22277;-56
2023/07/13 08:39:09;;;;;;;4.70;1.10;;;;;;;18.53;96.43;100129.09;110084;1268;22249;-56
2023/07/13 08:41:40;;;;;;;5.00;1.40;;;;;;;18.60;96.00;100134.60;110082;1274;22205;-53
2023/07/13 08:44:27;;;;;;;5.10;1.10;;;;;;;18.65;96.22;100139.66;110074;1276;22216;-56
2023/07/13 08:47:00;;;;;;;4.30;1.10;;;;;;;18.71;96.22;100151.61;109970;1270;22122;-56
2023/07/13 08:49:33;;;;;;;5.70;1.30;;;;;;;18.75;96.01;100155.95;106974;1276;22653;-55
2023/07/13 08:52:12;;;;;;;7.90;1.50;;;;;;;18.82;96.57;100166.81;106093;1279;22525;-57
2023/07/13 08:54:48;;;;;;;3.90;1.10;;;;;;;18.90;96.32;100166.52;106135;1279;24423;-57
2023/07/13 08:57:24;;;;;;;7.70;1.40;;;;;;;18.94;96.01;100171.65;105974;1273;22532;-57
2023/07/13 08:59:55;;;;;;;6.40;1.40;;;;;;;18.95;95.37;100175.50;106034;1269;22519;-54
2023/07/13 09:02:37;;;;;;;6.50;1.70;;;;;;;19.01;96.00;100175.40;105947;1265;22724;-54
2023/07/13 09:05:16;;;;;;;6.20;1.30;;;;;;;19.09;96.04;100178.70;106212;1279;25641;-58
2023/07/13 09:08:03;;;;;;;5.20;1.30;;;;;;;19.18;96.17;100185.31;105981;1279;25360;-56
2023/07/13 09:10:38;;;;;;;6.50;1.70;;;;;;;19.22;94.93;100184.05;110096;1269;23258;-54
2023/07/13 09:13:23;;;;;;;6.20;1.70;;;;;;;19.22;94.66;100181.36;110101;1266;22207;-56
2023/07/13 09:15:54;;;;;;;10.50;2.10;;;;;;;19.27;95.19;100183.39;110099;1279;22313;-54
2023/07/13 09:18:29;;;;;;;9.50;2.50;;;;;;;19.33;95.19;100185.73;110064;1273;22264;-54
2023/07/13 09:21:05;;;;;;;6.40;1.90;;;;;;;19.37;95.08;100183.77;110072;1269;22246;-54
2023/07/13 09:23:38;;;;;;;12.10;2.30;;;;;;;19.42;94.87;100179.06;110080;1273;22945;-58
2023/07/13 09:26:14;;;;;;;7.70;2.40;;;;;;;19.48;95.30;100174.83;110066;1273;22335;-57
2023/07/13 09:28:47;;;;;;;8.80;2.70;;;;;;;19.53;94.67;100175.23;110039;1269;22663;-55
2023/07/13 09:31:25;;;;;;;9.20;3.00;;;;;;;19.56;94.57;100177.71;106441;1273;25100;-56
2023/07/13 09:33:58;;;;;;;9.50;2.90;;;;;;;19.62;94.53;100176.33;106429;1279;22631;-55
2023/07/13 09:36:31;;;;;;;8.70;2.60;;;;;;;19.68;94.47;100176.14;110039;1277;22444;-59
2023/07/13 09:39:11;;;;;;;10.30;3.20;;;;;;;19.74;94.48;100174.54;110074;1272;22335;-60
2023/07/13 09:41:50;;;;;;;12.90;3.20;;;;;;;19.83;94.24;100177.75;110113;1269;22152;-57
2023/07/13 09:44:31;;;;;;;7.70;2.50;;;;;;;19.88;93.98;100174.92;110109;1272;23502;-58
2023/07/13 09:47:02;;;;;;;10.10;2.60;;;;;;;19.98;94.51;100174.48;110095;1267;22520;-59
2023/07/13 09:49:37;;;;;;;11.80;2.80;;;;;;;20.06;93.46;100173.11;110081;1273;22197;-58
2023/07/13 09:52:14;;;;;;;10.80;2.90;;;;;;;20.10;93.01;100171.54;110135;1267;22298;-57
2023/07/13 09:54:50;;;;;;;10.70;2.80;;;;;;;20.16;92.85;100173.16;110077;1279;22190;-59
2023/07/13 09:57:24;;;;;;;8.80;2.80;;;;;;;20.27;93.41;100171.33;110046;1274;23483;-59
2023/07/13 09:59:58;;;;;;;8.60;2.50;;;;;;;20.40;93.84;100163.35;110121;1270;23330;-60
2023/07/13 10:02:33;;;;;;;9.70;2.40;;;;;;;20.55;93.14;100156.98;110063;1276;22375;-58
2023/07/13 10:05:07;;;;;;;7.90;2.30;;;;;;;20.62;91.72;100149.70;110049;1264;22316;-61
2023/07/13 10:07:45;;;;;;;8.10;1.90;;;;;;;20.67;92.06;100142.43;110063;1279;22306;-58
2023/07/13 10:10:20;;;;;;;9.60;2.50;;;;;;;20.77;92.25;100140.57;110042;1267;22345;-60
2023/07/13 10:12:51;;;;;;;9.30;2.60;;;;;;;20.88;92.80;100144.57;110099;1276;22164;-58
2023/07/13 10:15:26;;;;;;;9.70;3.30;;;;;;;20.98;91.72;100151.41;110077;1273;22197;-59
2023/07/13 10:17:58;;;;;;;9.90;1.90;;;;;;;21.08;90.96;100150.00;110068;1273;22159;-60
2023/07/13 10:20:31;;;;;;;8.00;2.50;;;;;;;21.13;90.10;100149.83;110116;1276;22204;-58
2023/07/13 10:23:06;;;;;;;9.20;2.20;;;;;;;21.22;90.96;100153.66;110094;1276;22391;-56
2023/07/13 10:25:44;;;;;;;7.10;1.50;;;;;;;21.35;91.13;100157.20;110078;1271;22189;-60
2023/07/13 10:28:31;;;;;;;5.00;1.50;;;;;;;21.49;90.18;100159.39;110084;1272;23763;-61
2023/07/13 10:31:06;;;;;;;6.90;1.40;;;;;;;21.56;88.80;100167.29;110114;1279;22352;-59
2023/07/13 10:33:37;;;;;;;6.90;1.60;;;;;;;21.61;88.52;100169.94;110110;1276;22310;-60
2023/07/13 10:36:35;;;;;;;5.00;1.30;;;;;;;21.66;87.57;100172.27;110077;1270;22154;-59
2023/07/13 10:39:07;;;;;;;8.30;1.50;;;;;;;21.66;86.24;100169.62;110107;1269;23657;-61
2023/07/13 10:41:42;;;;;;;6.80;1.30;;;;;;;21.66;86.33;100176.63;110095;1273;22126;-59
2023/07/13 10:44:25;;;;;;;6.50;1.40;;;;;;;21.73;86.36;100175.70;110070;1273;22186;-59
2023/07/13 10:46:59;;;;;;;4.40;1.20;;;;;;;21.81;85.80;100178.48;110064;1273;22954;-60
2023/07/13 10:49:32;;;;;;;5.70;1.10;;;;;;;21.89;85.62;100177.75;110062;1273;22191;-61
2023/07/13 10:52:04;;;;;;;4.60;1.10;;;;;;;21.99;84.56;100180.62;110108;1273;22334;-60
2023/07/13 10:54:36;;;;;;;5.40;1.10;;;;;;;22.11;83.64;100180.48;110113;1273;22228;-60
2023/07/13 10:57:23;;;;;;;6.10;1.10;;;;;;;22.20;82.55;100170.60;109969;1269;22213;-60
2023/07/13 11:03:14;;;;;;;5.50;1.10;;;;;;;22.39;81.23;100173.19;102722;1302;545221;-56
2023/07/13 11:05:48;;;;;;;7.60;1.40;;;;;;;22.44;80.55;100174.23;109308;1286;23115;-58
2023/07/13 11:08:33;;;;;;;6.90;1.30;;;;;;;22.49;79.54;100167.65;109234;1285;22148;-57
2023/07/13 11:11:08;;;;;;;4.30;1.00;;;;;;;22.52;78.96;100161.24;109294;1283;22342;-58
2023/07/13 11:13:58;;;;;;;5.50;1.00;;;;;;;22.58;79.58;100162.23;109223;1286;22248;-59
2023/07/13 11:16:45;;;;;;;5.20;1.10;;;;;;;22.75;79.05;100166.16;105291;1283;5406714;-60
2023/07/13 11:19:39;;;;;;;8.50;1.50;;;;;;;22.88;77.92;100158.48;109408;1283;22274;-59
2023/07/13 11:22:17;;;;;;;7.20;1.20;;;;;;;22.96;77.44;100159.29;109472;1283;22230;-59
2023/07/13 11:25:02;;;;;;;4.20;0.80;;;;;;;23.06;77.30;100162.19;109449;1290;22152;-57
2023/07/13 11:27:46;;;;;;;3.40;0.80;;;;;;;23.13;76.06;100167.00;109451;1283;22193;-58
2023/07/13 11:30:39;;;;;;;2.90;0.70;;;;;;;23.16;75.47;100171.11;109415;1286;22221;-59
2023/07/13 11:33:20;;;;;;;7.90;0.90;;;;;;;23.21;74.50;100168.46;109435;1289;22186;-60
2023/07/13 11:36:03;;;;;;;4.20;0.60;;;;;;;23.26;73.84;100168.23;109419;1277;22182;-59
2023/07/13 11:38:42;;;;;;;5.20;0.70;;;;;;;23.29;72.53;100172.42;109617;1277;22175;-61
2023/07/13 11:41:19;;;;;;;8.60;1.10;;;;;;;23.32;72.80;100166.85;109602;1285;22953;-58
2023/07/13 11:43:51;;;;;;;6.50;0.70;;;;;;;23.38;72.28;100166.79;109644;1274;22196;-59
2023/07/13 11:46:26;;;;;;;4.80;0.80;;;;;;;23.41;71.64;100165.68;109634;1280;22151;-58